Time;durP1;ratioP1;P1;durP2;ratioP2;P2;SDS_P1;SDS_P2;PMS_P1;PMS_P2;Temp;Humidity;BMP_temperature;BMP_pressure;BME280_temperature;BME280_humidity;BME280_pressure;Samples;Min_cycle;Max_cycle;Signal;HPM_P1;HPM_P2
2022/04/23 00:00:16;;;;;;;24.73;12.07;;;12.90;59.30;;;;;;9185667;19;20025;-78
2022/04/23 00:03:22;;;;;;;24.17;12.65;;;12.80;59.30;;;;;;9182751;19;20018;-77
2022/04/23 00:06:29;;;;;;;27.17;12.45;;;12.90;59.50;;;;;;9184499;19;20018;-77
2022/04/23 00:09:45;;;;;;;26.52;13.52;;;12.80;59.50;;;;;;9179376;19;20006;-77
2022/04/23 00:12:54;;;;;;;22.48;13.25;;;12.80;59.60;;;;;;9182846;19;20026;-79
2022/04/23 00:16:00;;;;;;;22.48;13.27;;;12.80;59.80;;;;;;9182715;19;20014;-76
2022/04/23 00:19:09;;;;;;;24.33;13.93;;;12.80;59.80;;;;;;9180334;19;20017;-78
2022/04/23 00:22:18;;;;;;;19.45;13.38;;;12.80;59.90;;;;;;9185083;19;20395;-79
2022/04/23 00:25:36;;;;;;;22.42;13.55;;;12.80;59.90;;;;;;9183370;19;20013;-78
2022/04/23 00:28:46;;;;;;;24.83;14.18;;;12.70;60.20;;;;;;9183067;19;20788;-77
2022/04/23 00:31:55;;;;;;;21.15;14.38;;;12.70;60.10;;;;;;9180492;19;20018;-79
2022/04/23 00:35:05;;;;;;;22.85;14.32;;;12.70;60.20;;;;;;9182310;19;20487;-78
2022/04/23 00:38:12;;;;;;;24.52;14.70;;;12.70;60.30;;;;;;9183256;19;20341;-78
2022/04/23 00:44:49;;;;;;;24.38;15.15;;;12.60;60.50;;;;;;9181489;19;20404;-79
2022/04/23 00:47:58;;;;;;;25.58;14.82;;;12.60;60.60;;;;;;9183656;19;20047;-77
2022/04/23 00:51:07;;;;;;;28.48;15.40;;;12.60;60.50;;;;;;9183818;19;20018;-77
2022/04/23 00:54:24;;;;;;;22.75;15.55;;;12.60;60.60;;;;;;9182920;19;20003;-79
2022/04/23 00:57:36;;;;;;;24.48;15.35;;;12.60;60.70;;;;;;9182285;19;20030;-77
2022/04/23 01:00:52;;;;;;;25.77;15.68;;;12.50;60.80;;;;;;9181387;19;20023;-78
2022/04/23 01:04:02;;;;;;;23.42;15.25;;;12.50;61.00;;;;;;9181864;19;20066;-77
2022/04/23 01:07:13;;;;;;;28.35;15.45;;;12.50;60.80;;;;;;9181795;19;20019;-77
2022/04/23 01:10:21;;;;;;;27.42;15.55;;;12.50;60.90;;;;;;9178197;19;20381;-78
2022/04/23 01:13:32;;;;;;;23.20;15.50;;;12.50;61.00;;;;;;9179649;19;20029;-77
2022/04/23 01:16:40;;;;;;;27.00;15.40;;;12.50;61.10;;;;;;9182056;19;20018;-79
2022/04/23 01:19:48;;;;;;;25.33;15.65;;;12.40;61.20;;;;;;9181193;19;20479;-78
2022/04/23 01:22:59;;;;;;;25.77;15.55;;;12.40;61.20;;;;;;9180952;19;20337;-77
2022/04/23 01:26:05;;;;;;;28.73;15.93;;;12.40;61.30;;;;;;9181189;19;20019;-79
2022/04/23 01:29:21;;;;;;;24.95;14.75;;;12.40;61.30;;;;;;9190377;19;20015;-78
2022/04/23 01:32:26;;;;;;;;;;;12.30;61.40;;;;;;9191056;19;20020;-77
2022/04/23 01:35:34;;;;;;;22.85;15.40;;;12.30;61.10;;;;;;9191253;19;19934;-77
2022/04/23 01:38:44;;;;;;;26.85;15.98;;;12.30;61.10;;;;;;9189114;19;20548;-77
2022/04/23 01:41:49;;;;;;;24.33;15.52;;;12.30;61.50;;;;;;9187827;19;20015;-77
2022/04/23 01:44:56;;;;;;;28.45;16.70;;;12.30;61.50;;;;;;9188118;19;20021;-77
2022/04/23 01:48:04;;;;;;;26.77;15.52;;;12.20;61.60;;;;;;9188624;19;20348;-79
2022/04/23 01:51:17;;;;;;;25.00;15.80;;;12.20;61.70;;;;;;9189901;19;20010;-77
2022/04/23 01:54:26;;;;;;;26.50;16.10;;;12.20;61.80;;;;;;9187433;19;20006;-76
2022/04/23 01:57:34;;;;;;;24.20;15.52;;;12.20;62.00;;;;;;9189251;19;20038;-78
2022/04/23 02:00:52;;;;;;;24.70;15.35;;;12.20;62.00;;;;;;9190246;19;20022;-78
2022/04/23 02:04:01;;;;;;;27.05;15.45;;;12.10;62.00;;;;;;9189382;19;20019;-78
2022/04/23 02:07:07;;;;;;;24.50;14.98;;;12.10;62.20;;;;;;9189007;19;20018;-78
2022/04/23 02:13:45;;;;;;;;;;;12.10;62.50;;;;;;9187278;19;20014;-77
2022/04/23 02:16:52;;;;;;;22.40;15.07;;;12.00;61.90;;;;;;9189179;19;19919;-78
2022/04/23 02:20:03;;;;;;;23.15;14.57;;;12.00;61.90;;;;;;9188784;19;20022;-78
2022/04/23 02:23:09;;;;;;;23.98;14.63;;;12.00;62.10;;;;;;9188717;19;20026;-78
2022/04/23 02:26:18;;;;;;;23.65;14.38;;;12.00;62.30;;;;;;9188964;19;20495;-77
2022/04/23 02:29:23;;;;;;;23.67;14.82;;;12.00;62.40;;;;;;9187237;19;20015;-78
2022/04/23 02:32:30;;;;;;;22.00;14.15;;;12.00;62.40;;;;;;9187472;19;20022;-78
2022/04/23 02:35:45;;;;;;;19.13;13.93;;;12.00;62.50;;;;;;9189248;19;20021;-78
2022/04/23 02:38:54;;;;;;;23.73;14.55;;;11.90;62.50;;;;;;9188555;19;20010;-78
2022/04/23 02:42:04;;;;;;;22.13;14.73;;;11.90;62.60;;;;;;9188324;19;20018;-78
2022/04/23 02:45:13;;;;;;;20.60;14.63;;;11.90;62.80;;;;;;9189106;19;20041;-78
2022/04/23 02:48:21;;;;;;;20.77;14.05;;;11.90;62.80;;;;;;9187882;19;20013;-77
2022/04/23 02:51:26;;;;;;;23.02;13.55;;;11.80;63.50;;;;;;9187660;19;20095;-77
2022/04/23 02:54:31;;;;;;;20.08;13.32;;;11.80;62.90;;;;;;9186926;19;20042;-78
2022/04/23 02:57:40;;;;;;;18.85;12.55;;;11.80;63.00;;;;;;9187810;19;20011;-79
2022/04/23 03:00:49;;;;;;;18.42;11.98;;;11.70;63.10;;;;;;9187771;19;20014;-78
2022/04/23 03:03:56;;;;;;;17.52;11.95;;;11.70;63.10;;;;;;9187116;19;20019;-80
2022/04/23 03:07:03;;;;;;;20.63;11.50;;;11.70;63.20;;;;;;9187759;19;20082;-80
2022/04/23 03:10:14;;;;;;;17.58;12.68;;;11.70;63.30;;;;;;9184456;19;20010;-77
2022/04/23 03:13:26;;;;;;;19.08;12.95;;;11.60;63.30;;;;;;9185692;19;20382;-78
2022/04/23 03:16:31;;;;;;;18.00;11.70;;;11.60;63.40;;;;;;9185020;19;20494;-78
2022/04/23 03:19:37;;;;;;;18.55;12.27;;;11.60;63.40;;;;;;9185439;19;20037;-80
2022/04/23 03:22:43;;;;;;;18.13;11.77;;;11.60;63.40;;;;;;9187003;19;20022;-78
2022/04/23 03:25:51;;;;;;;19.08;11.88;;;11.60;63.50;;;;;;9186194;19;20100;-78
2022/04/23 03:28:59;;;;;;;22.45;12.93;;;11.50;63.50;;;;;;9184626;19;20017;-79
2022/04/23 03:32:07;;;;;;;18.52;12.43;;;11.50;63.60;;;;;;9185412;19;20018;-78
2022/04/23 03:35:17;;;;;;;22.02;11.73;;;11.50;63.60;;;;;;9184890;19;20014;-77
2022/04/23 03:38:25;;;;;;;20.60;11.98;;;11.50;63.60;;;;;;9187730;19;20018;-79
2022/04/23 03:41:34;;;;;;;18.63;12.07;;;11.40;64.30;;;;;;9186336;19;20412;-78
2022/04/23 03:44:42;;;;;;;19.65;11.57;;;11.40;63.70;;;;;;9186572;19;20487;-79
2022/04/23 03:47:51;;;;;;;16.08;11.40;;;11.30;63.80;;;;;;9185869;19;20010;-79
2022/04/23 03:51:00;;;;;;;21.33;11.50;;;11.40;63.90;;;;;;9183921;19;20019;-78
2022/04/23 03:54:08;;;;;;;19.85;12.18;;;11.30;63.90;;;;;;9183234;19;20022;-78
2022/04/23 03:57:13;;;;;;;21.60;11.70;;;11.30;63.90;;;;;;9183934;19;20484;-78
2022/04/23 04:00:22;;;;;;;17.83;12.27;;;11.30;64.00;;;;;;9183899;19;20082;-79
2022/04/23 04:03:34;;;;;;;19.77;11.95;;;11.20;64.20;;;;;;9184961;19;20015;-78
2022/04/23 04:06:41;;;;;;;17.70;11.63;;;11.20;64.20;;;;;;9184621;19;20017;-78
2022/04/23 04:09:49;;;;;;;20.75;11.55;;;11.10;64.10;;;;;;9179679;19;20022;-78
2022/04/23 04:12:55;;;;;;;18.50;12.57;;;11.10;64.20;;;;;;9186312;19;20015;-78
2022/04/23 04:16:05;;;;;;;18.25;11.48;;;11.10;64.30;;;;;;9184577;19;20007;-79
2022/04/23 04:19:10;;;;;;;23.10;12.13;;;11.10;64.50;;;;;;9183944;19;20014;-77
2022/04/23 04:22:16;;;;;;;16.50;11.23;;;11.00;64.30;;;;;;9184731;19;20018;-78
2022/04/23 04:25:25;;;;;;;17.05;10.95;;;11.00;64.40;;;;;;9183994;19;20015;-78
2022/04/23 04:28:32;;;;;;;17.13;11.43;;;11.00;64.60;;;;;;9183524;19;20345;-77
2022/04/23 04:31:51;;;;;;;16.00;11.43;;;10.90;64.50;;;;;;9182528;19;20018;-78
2022/04/23 04:34:57;;;;;;;16.65;11.27;;;10.90;64.70;;;;;;9183390;19;20047;-79
2022/04/23 04:38:02;;;;;;;17.88;11.00;;;10.90;64.60;;;;;;9183284;19;20019;-78
2022/04/23 04:41:08;;;;;;;15.25;10.75;;;10.90;64.70;;;;;;9182612;19;20490;-78
2022/04/23 04:44:14;;;;;;;18.58;10.52;;;10.90;64.80;;;;;;9183935;19;20021;-77
2022/04/23 04:47:24;;;;;;;15.75;10.20;;;10.90;64.80;;;;;;9180258;19;20026;-77
2022/04/23 04:50:31;;;;;;;16.17;10.85;;;10.90;64.90;;;;;;9181844;19;20030;-79
2022/04/23 04:53:45;;;;;;;18.80;10.43;;;10.90;64.80;;;;;;9180185;19;20047;-78
2022/04/23 04:56:53;;;;;;;16.15;10.63;;;10.90;65.00;;;;;;9182697;19;20026;-77
2022/04/23 04:59:58;;;;;;;15.98;9.45;;;10.80;64.70;;;;;;9179431;19;20579;-77
2022/04/23 05:03:06;;;;;;;15.45;10.52;;;10.80;65.50;;;;;;9180149;19;20571;-77
2022/04/23 05:06:14;;;;;;;16.85;10.20;;;10.80;65.00;;;;;;9180428;19;20025;-75
2022/04/23 05:09:19;;;;;;;17.20;10.55;;;10.80;65.00;;;;;;9175712;19;20014;-78
2022/04/23 05:12:26;;;;;;;16.13;9.63;;;10.80;65.00;;;;;;9178688;19;20018;-78
2022/04/23 05:15:38;;;;;;;14.15;9.98;;;10.80;65.00;;;;;;9178870;19;20029;-79
2022/04/23 05:19:01;;;;;;;13.55;9.57;;;10.80;65.10;;;;;;9179086;19;20022;-78
2022/04/23 05:22:07;;;;;;;;;;;10.80;65.30;;;;;;9182926;19;20074;-76
2022/04/23 05:25:15;;;;;;;13.25;8.75;;;10.80;65.00;;;;;;9179619;19;19923;-78
2022/04/23 05:28:22;;;;;;;17.45;9.48;;;10.70;64.90;;;;;;9182128;19;20025;-77
2022/04/23 05:31:28;;;;;;;13.75;9.57;;;10.70;65.00;;;;;;9180882;19;20014;-77
2022/04/23 05:34:41;;;;;;;13.63;9.40;;;10.80;65.20;;;;;;9180639;19;20019;-78
2022/04/23 05:37:47;;;;;;;13.50;8.90;;;10.80;65.30;;;;;;9181938;19;20043;-78
2022/04/23 05:40:55;;;;;;;16.13;8.70;;;10.80;65.30;;;;;;9183437;19;20006;-78
2022/04/23 05:44:02;;;;;;;11.43;7.95;;;10.80;65.30;;;;;;9180527;19;20070;-78
2022/04/23 05:47:13;;;;;;;14.23;8.35;;;10.80;65.30;;;;;;9181631;19;20353;-78
2022/04/23 05:50:24;;;;;;;13.98;8.13;;;10.90;65.40;;;;;;9181451;19;20479;-77
2022/04/23 05:53:29;;;;;;;14.93;8.88;;;10.90;65.50;;;;;;9180030;19;20019;-77
2022/04/23 05:56:34;;;;;;;14.15;9.02;;;10.90;65.40;;;;;;9179857;19;20014;-78
2022/04/23 05:59:40;;;;;;;15.30;8.48;;;10.90;65.50;;;;;;9182288;19;20018;-77
2022/04/23 06:02:50;;;;;;;11.95;8.55;;;11.00;65.50;;;;;;9180675;19;20475;-78
2022/04/23 06:05:59;;;;;;;12.77;8.85;;;11.10;65.60;;;;;;9179402;19;20713;-75
2022/04/23 06:09:07;;;;;;;17.17;8.95;;;11.10;65.70;;;;;;9175661;19;20507;-77
2022/04/23 06:12:12;;;;;;;18.55;8.65;;;11.20;65.70;;;;;;9178023;19;20054;-78
2022/04/23 06:15:23;;;;;;;13.20;8.23;;;11.30;65.60;;;;;;9186507;19;20014;-77
2022/04/23 06:18:29;;;;;;;15.82;8.27;;;11.40;65.60;;;;;;9187952;19;20082;-76
2022/04/23 06:21:36;;;;;;;12.90;8.52;;;11.50;66.20;;;;;;9186003;19;20019;-77
2022/04/23 06:24:43;;;;;;;11.60;7.70;;;11.60;65.50;;;;;;9187632;19;20015;-77
2022/04/23 06:27:50;;;;;;;14.55;7.25;;;11.70;65.30;;;;;;9187597;19;20359;-77
2022/04/23 06:30:59;;;;;;;22.13;8.68;;;11.80;65.20;;;;;;9185721;19;20470;-76
2022/04/23 06:34:04;;;;;;;14.25;8.10;;;11.90;65.20;;;;;;9187411;19;20014;-76
2022/04/23 06:37:15;;;;;;;12.00;7.70;;;12.00;65.10;;;;;;9188034;19;20017;-77
2022/04/23 06:40:21;;;;;;;12.07;7.70;;;12.10;65.10;;;;;;9186250;19;20039;-77
2022/04/23 06:43:27;;;;;;;12.15;7.65;;;12.20;64.90;;;;;;9186467;19;20022;-76
2022/04/23 06:46:34;;;;;;;14.63;8.00;;;12.30;64.80;;;;;;9187081;19;20039;-77
2022/04/23 06:49:47;;;;;;;13.23;7.70;;;12.40;64.80;;;;;;9187430;19;20132;-76
2022/04/23 06:52:55;;;;;;;13.32;7.78;;;12.50;64.70;;;;;;9185606;19;20022;-77
2022/04/23 06:56:01;;;;;;;13.30;8.13;;;12.60;64.70;;;;;;9184323;19;20015;-76
2022/04/23 07:02:27;;;;;;;10.60;7.50;;;12.70;64.40;;;;;;9185348;19;20071;-77
2022/04/23 07:05:34;;;;;;;16.77;7.85;;;12.90;64.30;;;;;;9184845;19;20014;-78
2022/04/23 07:08:46;;;;;;;11.65;7.80;;;13.00;64.10;;;;;;9182396;19;20010;-77
2022/04/23 07:11:51;;;;;;;12.65;7.75;;;13.00;63.90;;;;;;9186983;19;20345;-77
2022/04/23 07:14:57;;;;;;;13.95;7.85;;;13.20;63.90;;;;;;9186491;19;20027;-77
2022/04/23 07:18:03;;;;;;;14.35;9.00;;;13.20;63.70;;;;;;9185494;19;20007;-78
2022/04/23 07:21:12;;;;;;;15.18;8.57;;;13.30;63.60;;;;;;9186803;19;20022;-79
2022/04/23 07:24:21;;;;;;;12.57;7.95;;;13.40;63.50;;;;;;9183919;19;20057;-78
2022/04/23 07:27:27;;;;;;;18.50;8.43;;;13.50;63.40;;;;;;9187293;19;20318;-78
2022/04/23 07:30:34;;;;;;;12.25;8.57;;;13.60;63.30;;;;;;9184929;19;20459;-78
2022/04/23 07:40:35;;;;;;;13.38;8.55;;;13.90;63.00;;;;;;9186862;19;20021;-77
2022/04/23 07:43:43;;;;;;;13.60;8.27;;;14.00;62.80;;;;;;9183972;19;20017;-75
2022/04/23 07:46:48;;;;;;;14.77;8.35;;;14.10;62.70;;;;;;9184375;19;20360;-77
2022/04/23 07:49:58;;;;;;;13.93;8.98;;;14.20;62.60;;;;;;9184441;19;20467;-77
2022/04/23 07:53:07;;;;;;;13.45;8.85;;;14.20;62.40;;;;;;9182787;19;20364;-78
2022/04/23 07:56:19;;;;;;;16.08;9.20;;;14.30;62.30;;;;;;9182872;19;20018;-76
2022/04/23 07:59:28;;;;;;;14.30;9.10;;;14.40;62.20;;;;;;9183443;19;20483;-77
2022/04/23 08:02:38;;;;;;;15.50;10.07;;;14.50;62.20;;;;;;9185615;19;20010;-77
2022/04/23 08:05:45;;;;;;;13.23;9.02;;;14.60;62.00;;;;;;9183808;19;20016;-76
2022/04/23 08:08:51;;;;;;;16.88;9.52;;;14.60;61.80;;;;;;9178771;19;20043;-76
2022/04/23 08:12:01;;;;;;;16.08;10.45;;;14.70;61.70;;;;;;9183943;19;20014;-77
2022/04/23 08:15:12;;;;;;;17.58;10.80;;;14.80;61.60;;;;;;9182724;19;20018;-77
2022/04/23 08:18:19;;;;;;;17.33;11.18;;;14.90;61.50;;;;;;9183350;19;20014;-76
2022/04/23 08:21:26;;;;;;;19.15;11.32;;;15.00;61.50;;;;;;9181902;19;20359;-76
2022/04/23 08:24:34;;;;;;;16.73;10.10;;;15.10;61.30;;;;;;9183479;19;20019;-75
2022/04/23 08:30:34;;;;;;;19.02;11.73;;;15.20;61.20;;;;;;9181951;19;20486;-76
2022/04/23 08:31:23;;;;;;;18.92;11.68;;;15.30;61.10;;;;;;9182053;19;20109;-77
2022/04/23 08:34:39;;;;;;;20.02;11.88;;;15.40;61.10;;;;;;9179748;19;20010;-77
2022/04/23 08:37:46;;;;;;;21.42;11.45;;;15.50;60.90;;;;;;9177799;19;20025;-80
2022/04/23 08:40:55;;;;;;;23.38;11.90;;;15.70;61.00;;;;;;9181458;19;20011;-76
2022/04/23 08:44:09;;;;;;;16.45;11.30;;;15.80;60.90;;;;;;9181409;19;20042;-77
2022/04/23 08:47:25;;;;;;;22.52;12.68;;;16.00;60.70;;;;;;9183801;19;20018;-77
2022/04/23 08:50:37;;;;;;;19.70;10.93;;;16.10;60.40;;;;;;9182510;19;20509;-76
2022/04/23 08:53:47;;;;;;;21.20;11.73;;;16.30;60.40;;;;;;9182061;19;20424;-77
2022/04/23 08:56:55;;;;;;;16.25;11.10;;;16.40;60.20;;;;;;9180283;19;20011;-76
2022/04/23 09:00:14;;;;;;;19.48;11.40;;;16.50;60.10;;;;;;9182226;19;20047;-77
2022/04/23 09:06:52;;;;;;;18.27;10.98;;;16.70;59.70;;;;;;9180039;19;20377;-78
2022/04/23 09:10:02;;;;;;;19.08;11.65;;;16.90;59.60;;;;;;9171951;19;20371;-76
2022/04/23 09:13:13;;;;;;;18.27;12.48;;;17.00;59.40;;;;;;9181113;19;20056;-76
2022/04/23 09:26:25;;;;;;;20.15;11.20;;;17.50;58.60;;;;;;9180942;19;20010;-78
2022/04/23 09:29:32;;;;;;;20.23;11.45;;;17.50;58.40;;;;;;9181403;19;20010;-76
2022/04/23 09:32:41;;;;;;;18.52;11.10;;;17.60;58.20;;;;;;9180779;19;20023;-76
2022/04/23 09:36:03;;;;;;;20.85;11.25;;;17.60;58.00;;;;;;9181024;19;20011;-75
2022/04/23 09:39:08;;;;;;;17.33;10.73;;;17.80;57.70;;;;;;9181185;19;20014;-77
2022/04/23 09:42:17;;;;;;;19.42;11.32;;;17.90;57.90;;;;;;9182667;19;20373;-77
2022/04/23 09:45:23;;;;;;;27.55;13.27;;;17.90;57.70;;;;;;9180031;19;20408;-75
2022/04/23 09:48:31;;;;;;;25.02;12.30;;;18.00;57.60;;;;;;9184346;19;20013;-75
2022/04/23 09:51:36;;;;;;;17.77;11.13;;;18.20;57.40;;;;;;9189441;19;20083;-76
2022/04/23 09:54:43;;;;;;;16.60;11.00;;;18.30;57.30;;;;;;9188972;19;20018;-76
2022/04/23 09:57:52;;;;;;;19.95;12.13;;;18.30;57.00;;;;;;9188403;19;20018;-74
2022/04/23 10:00:59;;;;;;;16.98;11.90;;;18.50;56.80;;;;;;9188829;19;20638;-75
2022/04/23 10:04:08;;;;;;;17.35;11.60;;;18.60;56.70;;;;;;9188488;19;20015;-74
2022/04/23 10:07:13;;;;;;;19.20;11.20;;;18.70;56.50;;;;;;9184176;19;20689;-75
2022/04/23 10:10:23;;;;;;;16.92;11.70;;;18.70;56.30;;;;;;9186415;19;20010;-76
2022/04/23 10:13:31;;;;;;;19.17;11.77;;;18.80;56.10;;;;;;9186085;19;20022;-74
2022/04/23 10:16:38;;;;;;;20.17;12.32;;;18.90;55.90;;;;;;9185276;19;20403;-76
2022/04/23 10:19:48;;;;;;;17.17;11.07;;;18.90;55.80;;;;;;9188575;19;20051;-76
2022/04/23 10:23:03;;;;;;;17.75;11.95;;;19.00;56.20;;;;;;9189112;19;20010;-76
2022/04/23 10:26:25;;;;;;;16.77;10.80;;;19.10;55.40;;;;;;9187844;19;20025;-75
2022/04/23 10:29:31;;;;;;;27.33;11.60;;;19.10;55.20;;;;;;9187095;19;20348;-74
2022/04/23 10:32:50;;;;;;;20.50;10.27;;;19.20;55.30;;;;;;9189133;19;20011;-76
2022/04/23 10:36:23;;;;;;;18.83;10.32;;;19.30;55.20;;;;;;9185110;19;20089;-75
2022/04/23 10:40:22;;;;;;;19.95;10.77;;;19.40;54.80;;;;;;9184226;19;20019;-74
2022/04/23 10:43:30;;;;;;;21.17;12.03;;;19.50;54.70;;;;;;9179950;19;20018;-76
2022/04/23 10:46:46;;;;;;;17.80;11.25;;;19.60;54.90;;;;;;9183514;19;20007;-74
2022/04/23 10:50:31;;;;;;;20.85;10.05;;;19.60;54.40;;;;;;9179903;19;20015;-77
2022/04/23 10:53:58;;;;;;;20.30;10.45;;;19.70;54.20;;;;;;9178382;19;20107;-76
2022/04/23 10:57:09;;;;;;;21.67;9.80;;;19.80;54.00;;;;;;9180797;19;20021;-75
2022/04/23 11:00:17;;;;;;;14.77;9.15;;;19.80;54.10;;;;;;9180320;19;20041;-75
2022/04/23 11:03:40;;;;;;;;;;;;;;;;;;;;;
2022/04/23 11:13:52;;;;;;;18.20;9.75;;;20.10;53.50;;;;;;9180731;19;20030;-74
2022/04/23 11:16:59;;;;;;;17.13;9.70;;;20.10;53.50;;;;;;9179959;19;20015;-74
2022/04/23 11:20:09;;;;;;;14.52;10.20;;;20.20;53.40;;;;;;9181267;19;20018;-74
2022/04/23 11:23:18;;;;;;;15.48;9.57;;;20.20;53.10;;;;;;9179227;19;20101;-75
2022/04/23 11:26:45;;;;;;;16.25;10.15;;;20.30;53.10;;;;;;9179597;19;20044;-74
2022/04/23 11:29:54;;;;;;;14.02;9.15;;;20.40;52.70;;;;;;9179072;19;20374;-74
2022/04/23 11:33:12;;;;;;;12.93;9.27;;;20.40;52.70;;;;;;9180319;19;20018;-74
2022/04/23 11:36:27;;;;;;;12.93;9.50;;;20.40;52.30;;;;;;9175863;19;20659;-76
2022/04/23 11:39:32;;;;;;;18.02;9.75;;;20.40;52.40;;;;;;9174717;19;20022;-74
2022/04/23 11:42:43;;;;;;;17.42;9.68;;;20.50;52.50;;;;;;9174826;19;20047;-73
2022/04/23 11:45:51;;;;;;;15.63;9.38;;;20.50;52.20;;;;;;9175863;19;20018;-71
2022/04/23 11:48:56;;;;;;;15.13;9.27;;;20.50;52.30;;;;;;9172781;19;20034;-71
2022/04/23 11:52:02;;;;;;;15.00;9.05;;;20.50;52.00;;;;;;9175454;19;20611;-72
2022/04/23 11:55:09;;;;;;;14.35;9.40;;;20.50;51.90;;;;;;9171918;19;20833;-72
2022/04/23 11:58:21;;;;;;;12.20;8.88;;;20.50;51.80;;;;;;9170647;19;20014;-71
2022/04/23 12:01:27;;;;;;;23.50;9.65;;;20.50;51.50;;;;;;9176163;19;20467;-72
2022/04/23 12:04:43;;;;;;;19.23;9.30;;;20.60;51.60;;;;;;9181668;19;20090;-72
2022/04/23 12:07:48;;;;;;;16.33;8.50;;;20.60;51.20;;;;;;9181886;19;20026;-72
2022/04/23 12:10:53;;;;;;;13.38;8.45;;;20.60;51.40;;;;;;9178535;19;20029;-72
2022/04/23 12:14:03;;;;;;;15.07;9.38;;;20.70;51.40;;;;;;9182404;19;20014;-71
2022/04/23 12:17:11;;;;;;;19.58;9.40;;;20.60;50.90;;;;;;9180692;19;20373;-71
2022/04/23 12:20:19;;;;;;;13.52;8.38;;;20.60;50.90;;;;;;9179550;19;20352;-70
2022/04/23 12:23:24;;;;;;;16.17;8.35;;;20.60;51.00;;;;;;9180962;19;20023;-71
2022/04/23 12:26:33;;;;;;;12.77;8.70;;;20.60;51.00;;;;;;9181952;19;20511;-70
2022/04/23 12:43:32;;;;;;;15.63;8.60;;;20.60;50.60;;;;;;9180392;19;20011;-70
2022/04/23 12:46:54;;;;;;;9.95;7.40;;;20.60;50.20;;;;;;9182712;19;20487;-72
2022/04/23 12:50:00;;;;;;;22.58;8.98;;;20.40;50.00;;;;;;9181442;19;20018;-74
2022/04/23 12:53:06;;;;;;;14.07;8.32;;;20.30;50.40;;;;;;9180807;19;20175;-73
2022/04/23 12:56:11;;;;;;;13.52;8.13;;;20.30;50.30;;;;;;9179176;19;20006;-73
2022/04/23 12:59:16;;;;;;;14.35;7.68;;;20.20;50.30;;;;;;9180105;19;20141;-73
2022/04/23 13:02:23;;;;;;;13.60;7.68;;;20.20;50.30;;;;;;9182922;19;20090;-72
2022/04/23 13:05:30;;;;;;;12.50;7.53;;;20.10;50.00;;;;;;9181407;19;20015;-73
2022/04/23 13:11:52;;;;;;;10.63;7.03;;;20.20;50.10;;;;;;9182881;19;20474;-71
2022/04/23 13:14:57;;;;;;;9.45;6.57;;;20.20;50.00;;;;;;9180102;19;21090;-71
2022/04/23 13:18:06;;;;;;;10.52;6.13;;;20.20;49.90;;;;;;9175160;19;20025;-71
2022/04/23 13:21:11;;;;;;;17.67;7.95;;;20.20;49.80;;;;;;9176872;19;20848;-71
2022/04/23 13:24:16;;;;;;;14.75;7.20;;;20.20;49.80;;;;;;9184757;19;20022;-72
2022/04/23 13:27:22;;;;;;;13.43;7.07;;;20.30;49.60;;;;;;9185779;19;20018;-71
2022/04/23 13:30:27;;;;;;;17.75;7.13;;;20.30;49.50;;;;;;9184866;19;20372;-71
2022/04/23 13:33:35;;;;;;;10.73;6.93;;;20.30;49.30;;;;;;9186285;19;20364;-71
2022/04/23 13:36:40;;;;;;;9.15;6.22;;;20.30;49.20;;;;;;9184828;19;20014;-71
2022/04/23 13:39:45;;;;;;;18.38;7.32;;;20.20;49.20;;;;;;9180834;19;20504;-70
2022/04/23 13:42:50;;;;;;;14.68;6.70;;;20.30;49.20;;;;;;9184564;19;20019;-71
2022/04/23 13:45:55;;;;;;;11.48;6.97;;;20.30;49.00;;;;;;9184673;19;20022;-71
2022/04/23 13:49:05;;;;;;;12.05;7.07;;;20.20;48.80;;;;;;9184935;19;20375;-70
2022/04/23 13:52:10;;;;;;;9.00;5.97;;;20.20;48.60;;;;;;9180765;19;20363;-70
2022/04/23 13:55:15;;;;;;;12.88;6.40;;;20.10;48.80;;;;;;9184027;19;20120;-70
2022/04/23 13:58:20;;;;;;;18.38;6.13;;;20.10;48.70;;;;;;9183968;19;20479;-71
2022/04/23 14:01:25;;;;;;;20.48;6.50;;;20.10;48.60;;;;;;9184157;19;20010;-71
2022/04/23 14:11:17;;;;;;;12.45;5.57;;;20.10;48.30;;;;;;9180778;19;20014;-70
2022/04/23 14:14:21;;;;;;;6.90;5.05;;;20.10;48.30;;;;;;9183257;19;20503;-70
2022/04/23 14:17:27;;;;;;;8.25;5.95;;;20.00;48.10;;;;;;9181927;19;20018;-70
2022/04/23 14:20:34;;;;;;;8.93;4.03;;;20.10;48.10;;;;;;9185043;19;20014;-70
2022/04/23 14:23:39;;;;;;;10.88;5.05;;;20.00;47.80;;;;;;9180424;19;20014;-70
2022/04/23 14:26:44;;;;;;;9.00;5.75;;;20.00;47.80;;;;;;9176431;19;20023;-70
2022/04/23 14:29:50;;;;;;;9.80;5.05;;;20.00;47.60;;;;;;9182776;19;20022;-70
2022/04/23 14:32:55;;;;;;;7.80;4.80;;;19.90;47.60;;;;;;9181250;19;20494;-70
2022/04/23 14:36:03;;;;;;;7.47;4.82;;;19.90;47.60;;;;;;9179707;19;20015;-70
2022/04/23 14:39:08;;;;;;;6.57;4.50;;;19.80;47.50;;;;;;9181426;19;20014;-69
2022/04/23 14:42:14;;;;;;;9.35;5.03;;;19.80;47.60;;;;;;9183676;19;20059;-69
2022/04/23 14:45:19;;;;;;;9.05;5.15;;;19.80;47.40;;;;;;9183920;19;20011;-70
2022/04/23 14:48:27;;;;;;;11.73;4.57;;;19.80;47.30;;;;;;9178243;19;20025;-70
2022/04/23 14:54:52;;;;;;;7.53;4.95;;;19.70;47.10;;;;;;9184013;19;20018;-70
2022/04/23 14:57:57;;;;;;;8.55;4.82;;;19.70;47.10;;;;;;9182688;19;20029;-70
2022/04/23 15:01:02;;;;;;;12.43;5.65;;;19.70;47.70;;;;;;9180575;19;20014;-70
2022/04/23 15:04:11;;;;;;;7.07;4.85;;;19.60;47.00;;;;;;9181860;19;20022;-70
2022/04/23 15:07:18;;;;;;;9.40;4.63;;;19.70;47.00;;;;;;9179064;19;20022;-70
2022/04/23 15:10:23;;;;;;;8.32;4.78;;;19.60;46.80;;;;;;9178559;19;20023;-70
2022/04/23 15:13:28;;;;;;;5.93;4.22;;;19.60;46.80;;;;;;9178223;19;20018;-70
2022/04/23 15:16:35;;;;;;;6.80;4.07;;;19.50;46.80;;;;;;9180036;19;20014;-71
2022/04/23 15:19:40;;;;;;;7.63;5.25;;;19.50;46.80;;;;;;9176484;19;20014;-71
2022/04/23 15:22:48;;;;;;;8.18;4.75;;;19.50;46.70;;;;;;9178230;19;20013;-71
2022/04/23 15:25:53;;;;;;;12.55;4.53;;;19.40;46.50;;;;;;9179126;19;20376;-70
2022/04/23 15:28:59;;;;;;;7.13;4.25;;;19.40;46.60;;;;;;9179177;19;20018;-71
2022/04/23 15:32:04;;;;;;;7.35;4.53;;;19.40;46.50;;;;;;9178634;19;20368;-71
2022/04/23 15:35:10;;;;;;;7.03;4.35;;;19.40;46.40;;;;;;9176021;19;20475;-71
2022/04/23 15:38:17;;;;;;;5.47;3.92;;;19.30;46.40;;;;;;9177064;19;20019;-71
2022/04/23 15:41:25;;;;;;;6.60;4.38;;;19.30;46.30;;;;;;9177672;19;20019;-71
2022/04/23 15:44:30;;;;;;;10.63;5.47;;;19.30;46.30;;;;;;9174610;19;20368;-71
2022/04/23 15:47:36;;;;;;;6.43;3.80;;;19.30;46.30;;;;;;9176321;19;20014;-71
2022/04/23 15:50:46;;;;;;;8.02;4.15;;;19.30;46.30;;;;;;9174762;19;20022;-71
2022/04/23 15:53:54;;;;;;;6.90;4.03;;;19.20;46.20;;;;;;9177851;19;20475;-70
2022/04/23 15:56:59;;;;;;;11.13;4.80;;;19.30;46.10;;;;;;9176676;19;20019;-70
2022/04/23 16:00:04;;;;;;;6.03;4.07;;;19.20;46.10;;;;;;9172989;19;20018;-70
2022/04/23 16:03:29;;;;;;;5.25;3.90;;;19.20;46.00;;;;;;9176448;19;20025;-70
2022/04/23 16:06:34;;;;;;;7.82;3.95;;;19.10;46.00;;;;;;9176278;19;20018;-70
2022/04/23 16:09:51;;;;;;;5.30;3.95;;;19.20;46.00;;;;;;9211107;19;20554;-71
2022/04/23 16:12:56;;;;;;;5.68;4.32;;;19.10;45.90;;;;;;9217435;19;20018;-71
2022/04/23 16:16:21;;;;;;;6.72;4.25;;;19.10;46.00;;;;;;9220249;19;20033;-70
2022/04/23 16:19:26;;;;;;;7.25;4.18;;;19.10;46.00;;;;;;9222001;19;20110;-69
2022/04/23 16:22:32;;;;;;;8.45;3.47;;;19.10;45.90;;;;;;9218655;19;20107;-71
2022/04/23 16:25:39;;;;;;;7.13;3.92;;;19.10;45.90;;;;;;9219720;19;20594;-70
2022/04/23 16:28:44;;;;;;;11.57;3.78;;;19.00;45.80;;;;;;9217610;19;20675;-70
2022/04/23 16:31:49;;;;;;;5.97;3.60;;;19.00;45.80;;;;;;9222726;19;20042;-71
2022/04/23 16:34:54;;;;;;;9.90;4.18;;;18.90;45.70;;;;;;9218868;19;20010;-70
2022/04/23 16:47:55;;;;;;;7.88;3.47;;;18.80;45.70;;;;;;9216164;19;20040;-71
2022/04/23 16:51:00;;;;;;;6.38;3.95;;;18.80;45.70;;;;;;9217572;19;20030;-71
2022/04/23 16:54:05;;;;;;;9.23;3.80;;;18.70;45.60;;;;;;9216512;19;20055;-71
2022/04/23 16:57:13;;;;;;;10.02;3.83;;;18.70;45.70;;;;;;9219876;19;20049;-69
2022/04/23 17:00:19;;;;;;;8.80;4.00;;;18.60;45.60;;;;;;9217612;19;20020;-70
2022/04/23 17:03:24;;;;;;;5.95;3.95;;;18.60;45.70;;;;;;9218079;19;20049;-70
2022/04/23 17:06:29;;;;;;;13.32;3.80;;;18.60;45.70;;;;;;9214073;19;20056;-70
2022/04/23 17:09:34;;;;;;;6.20;3.75;;;18.50;45.60;;;;;;9205335;19;20018;-70
2022/04/23 17:12:44;;;;;;;6.85;4.13;;;18.50;45.70;;;;;;9215685;19;20014;-71
2022/04/23 17:15:49;;;;;;;7.47;3.42;;;18.50;45.60;;;;;;9214275;19;20634;-71
2022/04/23 17:18:55;;;;;;;7.40;3.78;;;18.40;45.70;;;;;;9204552;19;20018;-71
2022/04/23 17:22:00;;;;;;;12.45;3.60;;;18.40;45.70;;;;;;9174238;19;20026;-72